sensor_id;sensor_type;location;lat;lon;timestamp;P1;durP1;ratioP1;P2;durP2;ratioP2
59097;SDS011;44883;52.760;6.610;2022-09-09T00:02:47;9.18;;;3.65;;
59097;SDS011;44883;52.760;6.610;2022-09-09T00:05:17;9.55;;;3.45;;
59097;SDS011;44883;52.760;6.610;2022-09-09T00:08:07;9.85;;;3.28;;
59097;SDS011;44883;52.760;6.610;2022-09-09T00:10:43;6.75;;;3.13;;
59097;SDS011;44883;52.760;6.610;2022-09-09T00:18:26;7.07;;;3.90;;
59097;SDS011;44883;52.760;6.610;2022-09-09T00:21:10;12.55;;;8.60;;
59097;SDS011;44883;52.760;6.610;2022-09-09T00:23:43;10.70;;;4.10;;
59097;SDS011;44883;52.760;6.610;2022-09-09T00:29:10;8.32;;;3.50;;
59097;SDS011;44883;52.760;6.610;2022-09-09T00:31:53;8.30;;;3.50;;
59097;SDS011;44883;52.760;6.610;2022-09-09T00:34:24;12.30;;;7.90;;
59097;SDS011;44883;52.760;6.610;2022-09-09T00:36:52;12.90;;;7.72;;
59097;SDS011;44883;52.760;6.610;2022-09-09T00:39:55;6.80;;;3.47;;
59097;SDS011;44883;52.760;6.610;2022-09-09T00:42:30;7.22;;;3.70;;
59097;SDS011;44883;52.760;6.610;2022-09-09T00:48:04;14.02;;;9.10;;
59097;SDS011;44883;52.760;6.610;2022-09-09T00:53:37;13.65;;;8.82;;
59097;SDS011;44883;52.760;6.610;2022-09-09T00:56:21;11.35;;;8.77;;
59097;SDS011;44883;52.760;6.610;2022-09-09T01:01:46;11.93;;;8.50;;
59097;SDS011;44883;52.760;6.610;2022-09-09T01:04:19;13.63;;;8.65;;
59097;SDS011;44883;52.760;6.610;2022-09-09T01:06:57;14.93;;;9.23;;
59097;SDS011;44883;52.760;6.610;2022-09-09T01:12:17;6.05;;;3.53;;
59097;SDS011;44883;52.760;6.610;2022-09-09T01:15:24;6.50;;;2.65;;
59097;SDS011;44883;52.760;6.610;2022-09-09T01:20:12;14.77;;;8.93;;
59097;SDS011;44883;52.760;6.610;2022-09-09T01:28:25;13.73;;;9.57;;
59097;SDS011;44883;52.760;6.610;2022-09-09T01:30:53;11.55;;;8.50;;
59097;SDS011;44883;52.760;6.610;2022-09-09T01:33:20;13.27;;;8.88;;
59097;SDS011;44883;52.760;6.610;2022-09-09T01:35:49;11.88;;;7.80;;
59097;SDS011;44883;52.760;6.610;2022-09-09T01:38:19;11.15;;;7.28;;
59097;SDS011;44883;52.760;6.610;2022-09-09T01:40:47;10.25;;;6.80;;
59097;SDS011;44883;52.760;6.610;2022-09-09T01:43:13;8.70;;;2.58;;
59097;SDS011;44883;52.760;6.610;2022-09-09T01:45:39;10.02;;;7.03;;
59097;SDS011;44883;52.760;6.610;2022-09-09T01:48:05;13.07;;;6.95;;
59097;SDS011;44883;52.760;6.610;2022-09-09T01:50:31;12.43;;;7.50;;
59097;SDS011;44883;52.760;6.610;2022-09-09T01:52:58;11.80;;;7.60;;
59097;SDS011;44883;52.760;6.610;2022-09-09T01:55:29;11.32;;;8.10;;
59097;SDS011;44883;52.760;6.610;2022-09-09T02:00:53;13.23;;;7.90;;
59097;SDS011;44883;52.760;6.610;2022-09-09T02:03:32;11.07;;;7.90;;
59097;SDS011;44883;52.760;6.610;2022-09-09T02:08:45;14.02;;;8.93;;
59097;SDS011;44883;52.760;6.610;2022-09-09T02:11:15;13.05;;;9.60;;
59097;SDS011;44883;52.760;6.610;2022-09-09T02:13:45;12.82;;;9.35;;
59097;SDS011;44883;52.760;6.610;2022-09-09T02:18:51;12.75;;;9.95;;
59097;SDS011;44883;52.760;6.610;2022-09-09T02:21:33;13.43;;;10.07;;
59097;SDS011;44883;52.760;6.610;2022-09-09T02:24:02;11.43;;;3.90;;
59097;SDS011;44883;52.760;6.610;2022-09-09T02:26:35;11.10;;;4.25;;
59097;SDS011;44883;52.760;6.610;2022-09-09T02:29:06;10.70;;;4.55;;
59097;SDS011;44883;52.760;6.610;2022-09-09T02:31:36;15.27;;;11.05;;
59097;SDS011;44883;52.760;6.610;2022-09-09T02:34:03;12.93;;;11.32;;
59097;SDS011;44883;52.760;6.610;2022-09-09T02:36:31;15.48;;;11.25;;
59097;SDS011;44883;52.760;6.610;2022-09-09T02:38:58;12.25;;;10.75;;
59097;SDS011;44883;52.760;6.610;2022-09-09T02:41:31;13.82;;;10.93;;
59097;SDS011;44883;52.760;6.610;2022-09-09T02:43:58;13.18;;;10.30;;
59097;SDS011;44883;52.760;6.610;2022-09-09T02:49:09;14.88;;;12.18;;
59097;SDS011;44883;52.760;6.610;2022-09-09T02:52:19;16.48;;;11.30;;
59097;SDS011;44883;52.760;6.610;2022-09-09T02:54:34;12.98;;;10.30;;
59097;SDS011;44883;52.760;6.610;2022-09-09T02:57:04;10.02;;;4.50;;
59097;SDS011;44883;52.760;6.610;2022-09-09T02:59:33;7.50;;;4.03;;
59097;SDS011;44883;52.760;6.610;2022-09-09T03:01:59;14.23;;;10.43;;
59097;SDS011;44883;52.760;6.610;2022-09-09T03:04:24;12.75;;;10.15;;
59097;SDS011;44883;52.760;6.610;2022-09-09T03:06:50;14.60;;;11.30;;
59097;SDS011;44883;52.760;6.610;2022-09-09T03:09:16;12.95;;;11.18;;
59097;SDS011;44883;52.760;6.610;2022-09-09T03:11:42;17.05;;;12.10;;
59097;SDS011;44883;52.760;6.610;2022-09-09T03:14:07;10.20;;;4.13;;
59097;SDS011;44883;52.760;6.610;2022-09-09T03:16:33;19.13;;;13.55;;
59097;SDS011;44883;52.760;6.610;2022-09-09T03:18:59;14.90;;;12.85;;
59097;SDS011;44883;52.760;6.610;2022-09-09T03:21:25;17.75;;;12.73;;
59097;SDS011;44883;52.760;6.610;2022-09-09T03:23:51;7.95;;;3.20;;
59097;SDS011;44883;52.760;6.610;2022-09-09T03:26:17;14.57;;;11.27;;
59097;SDS011;44883;52.760;6.610;2022-09-09T03:28:42;15.07;;;11.93;;
59097;SDS011;44883;52.760;6.610;2022-09-09T03:31:10;13.75;;;10.57;;
59097;SDS011;44883;52.760;6.610;2022-09-09T03:33:39;5.75;;;2.90;;
59097;SDS011;44883;52.760;6.610;2022-09-09T03:36:06;8.43;;;3.72;;
59097;SDS011;44883;52.760;6.610;2022-09-09T03:38:33;14.75;;;9.55;;
59097;SDS011;44883;52.760;6.610;2022-09-09T03:41:00;11.05;;;8.95;;
59097;SDS011;44883;52.760;6.610;2022-09-09T03:43:27;5.65;;;2.88;;
59097;SDS011;44883;52.760;6.610;2022-09-09T03:45:53;6.32;;;2.78;;
59097;SDS011;44883;52.760;6.610;2022-09-09T03:48:22;9.55;;;8.02;;
59097;SDS011;44883;52.760;6.610;2022-09-09T03:50:49;10.15;;;8.68;;
59097;SDS011;44883;52.760;6.610;2022-09-09T03:53:16;13.07;;;9.20;;
59097;SDS011;44883;52.760;6.610;2022-09-09T03:55:44;12.30;;;9.35;;
59097;SDS011;44883;52.760;6.610;2022-09-09T03:58:15;11.90;;;9.00;;
59097;SDS011;44883;52.760;6.610;2022-09-09T04:00:41;13.23;;;9.55;;
59097;SDS011;44883;52.760;6.610;2022-09-09T04:03:10;12.35;;;10.30;;
59097;SDS011;44883;52.760;6.610;2022-09-09T04:05:36;13.18;;;11.10;;
59097;SDS011;44883;52.760;6.610;2022-09-09T04:08:07;7.18;;;3.75;;
59097;SDS011;44883;52.760;6.610;2022-09-09T04:10:33;8.80;;;4.32;;
59097;SDS011;44883;52.760;6.610;2022-09-09T04:13:02;7.32;;;3.80;;
59097;SDS011;44883;52.760;6.610;2022-09-09T04:15:29;14.80;;;12.00;;
59097;SDS011;44883;52.760;6.610;2022-09-09T04:17:55;15.25;;;11.98;;
59097;SDS011;44883;52.760;6.610;2022-09-09T04:20:20;15.73;;;12.85;;
59097;SDS011;44883;52.760;6.610;2022-09-09T04:22:47;14.57;;;11.82;;
59097;SDS011;44883;52.760;6.610;2022-09-09T04:25:13;14.25;;;12.52;;
59097;SDS011;44883;52.760;6.610;2022-09-09T04:27:38;13.88;;;12.30;;
59097;SDS011;44883;52.760;6.610;2022-09-09T04:30:05;13.10;;;5.95;;
59097;SDS011;44883;52.760;6.610;2022-09-09T04:32:35;7.85;;;4.40;;
59097;SDS011;44883;52.760;6.610;2022-09-09T04:35:02;14.68;;;12.18;;
59097;SDS011;44883;52.760;6.610;2022-09-09T04:37:28;13.75;;;11.57;;
59097;SDS011;44883;52.760;6.610;2022-09-09T04:39:53;14.45;;;12.95;;
59097;SDS011;44883;52.760;6.610;2022-09-09T04:42:19;15.38;;;12.52;;
59097;SDS011;44883;52.760;6.610;2022-09-09T04:44:45;13.95;;;12.52;;
59097;SDS011;44883;52.760;6.610;2022-09-09T04:47:10;15.05;;;12.88;;
59097;SDS011;44883;52.760;6.610;2022-09-09T04:49:36;14.68;;;13.00;;
59097;SDS011;44883;52.760;6.610;2022-09-09T04:52:03;14.75;;;12.70;;
59097;SDS011;44883;52.760;6.610;2022-09-09T04:54:29;14.90;;;13.40;;
59097;SDS011;44883;52.760;6.610;2022-09-09T04:56:55;13.88;;;11.60;;
59097;SDS011;44883;52.760;6.610;2022-09-09T04:59:21;13.85;;;11.43;;
59097;SDS011;44883;52.760;6.610;2022-09-09T05:01:47;10.13;;;5.20;;
59097;SDS011;44883;52.760;6.610;2022-09-09T05:04:13;13.55;;;10.52;;
59097;SDS011;44883;52.760;6.610;2022-09-09T05:06:41;13.43;;;11.20;;
59097;SDS011;44883;52.760;6.610;2022-09-09T05:09:07;9.63;;;4.38;;
59097;SDS011;44883;52.760;6.610;2022-09-09T05:11:34;9.25;;;5.05;;
59097;SDS011;44883;52.760;6.610;2022-09-09T05:14:03;8.88;;;4.63;;
59097;SDS011;44883;52.760;6.610;2022-09-09T05:16:29;14.98;;;11.70;;
59097;SDS011;44883;52.760;6.610;2022-09-09T05:18:55;13.15;;;11.73;;
59097;SDS011;44883;52.760;6.610;2022-09-09T05:21:21;12.15;;;10.68;;
59097;SDS011;44883;52.760;6.610;2022-09-09T05:23:48;12.15;;;10.63;;
59097;SDS011;44883;52.760;6.610;2022-09-09T05:26:16;8.70;;;4.53;;
59097;SDS011;44883;52.760;6.610;2022-09-09T05:28:42;8.25;;;4.45;;
59097;SDS011;44883;52.760;6.610;2022-09-09T05:31:09;10.52;;;9.35;;
59097;SDS011;44883;52.760;6.610;2022-09-09T05:33:37;10.27;;;8.85;;
59097;SDS011;44883;52.760;6.610;2022-09-09T05:36:06;10.27;;;8.48;;
59097;SDS011;44883;52.760;6.610;2022-09-09T05:38:33;9.57;;;7.70;;
59097;SDS011;44883;52.760;6.610;2022-09-09T05:41:00;8.95;;;7.78;;
59097;SDS011;44883;52.760;6.610;2022-09-09T05:43:27;8.10;;;6.80;;
59097;SDS011;44883;52.760;6.610;2022-09-09T05:46:01;7.78;;;6.65;;
59097;SDS011;44883;52.760;6.610;2022-09-09T05:48:37;8.45;;;6.80;;
59097;SDS011;44883;52.760;6.610;2022-09-09T05:51:05;8.55;;;7.38;;
59097;SDS011;44883;52.760;6.610;2022-09-09T05:53:33;8.20;;;6.70;;
59097;SDS011;44883;52.760;6.610;2022-09-09T05:56:03;8.45;;;6.82;;
59097;SDS011;44883;52.760;6.610;2022-09-09T05:58:33;9.55;;;6.53;;
59097;SDS011;44883;52.760;6.610;2022-09-09T06:01:06;9.45;;;6.65;;
59097;SDS011;44883;52.760;6.610;2022-09-09T06:03:36;9.60;;;7.65;;
59097;SDS011;44883;52.760;6.610;2022-09-09T06:06:04;9.48;;;7.90;;
59097;SDS011;44883;52.760;6.610;2022-09-09T06:08:32;8.68;;;7.07;;
59097;SDS011;44883;52.760;6.610;2022-09-09T06:11:05;9.63;;;7.65;;
59097;SDS011;44883;52.760;6.610;2022-09-09T06:13:33;9.05;;;7.18;;
59097;SDS011;44883;52.760;6.610;2022-09-09T06:16:00;9.13;;;7.00;;
59097;SDS011;44883;52.760;6.610;2022-09-09T06:18:25;8.65;;;7.75;;
59097;SDS011;44883;52.760;6.610;2022-09-09T06:20:55;10.65;;;7.18;;
59097;SDS011;44883;52.760;6.610;2022-09-09T06:25:48;8.10;;;7.30;;
59097;SDS011;44883;52.760;6.610;2022-09-09T06:28:14;9.18;;;7.13;;
59097;SDS011;44883;52.760;6.610;2022-09-09T06:30:42;10.55;;;7.68;;
59097;SDS011;44883;52.760;6.610;2022-09-09T06:33:07;9.50;;;7.93;;
59097;SDS011;44883;52.760;6.610;2022-09-09T06:35:34;9.60;;;7.53;;
59097;SDS011;44883;52.760;6.610;2022-09-09T06:38:00;8.25;;;2.92;;
59097;SDS011;44883;52.760;6.610;2022-09-09T06:40:25;10.80;;;7.10;;
59097;SDS011;44883;52.760;6.610;2022-09-09T06:42:51;10.75;;;7.85;;
59097;SDS011;44883;52.760;6.610;2022-09-09T06:45:16;10.10;;;8.43;;
59097;SDS011;44883;52.760;6.610;2022-09-09T06:47:42;9.23;;;7.85;;
59097;SDS011;44883;52.760;6.610;2022-09-09T06:50:08;8.57;;;7.40;;
59097;SDS011;44883;52.760;6.610;2022-09-09T06:52:35;9.32;;;7.72;;
59097;SDS011;44883;52.760;6.610;2022-09-09T06:55:01;9.90;;;7.35;;
59097;SDS011;44883;52.760;6.610;2022-09-09T06:57:27;9.40;;;7.50;;
59097;SDS011;44883;52.760;6.610;2022-09-09T06:59:52;11.27;;;8.07;;
59097;SDS011;44883;52.760;6.610;2022-09-09T07:02:18;10.32;;;7.40;;
59097;SDS011;44883;52.760;6.610;2022-09-09T07:04:43;5.85;;;2.90;;
59097;SDS011;44883;52.760;6.610;2022-09-09T07:07:09;9.65;;;8.05;;
59097;SDS011;44883;52.760;6.610;2022-09-09T07:09:37;8.48;;;7.00;;
59097;SDS011;44883;52.760;6.610;2022-09-09T07:12:02;9.77;;;6.05;;
59097;SDS011;44883;52.760;6.610;2022-09-09T07:14:30;7.93;;;5.88;;
59097;SDS011;44883;52.760;6.610;2022-09-09T07:16:57;8.35;;;5.80;;
59097;SDS011;44883;52.760;6.610;2022-09-09T07:19:23;8.30;;;5.18;;
59097;SDS011;44883;52.760;6.610;2022-09-09T07:21:48;7.88;;;5.30;;
59097;SDS011;44883;52.760;6.610;2022-09-09T07:24:14;7.30;;;4.90;;
59097;SDS011;44883;52.760;6.610;2022-09-09T07:26:40;6.57;;;4.95;;
59097;SDS011;44883;52.760;6.610;2022-09-09T07:29:06;7.75;;;4.47;;
59097;SDS011;44883;52.760;6.610;2022-09-09T07:31:34;6.72;;;4.18;;
59097;SDS011;44883;52.760;6.610;2022-09-09T07:34:02;6.70;;;3.97;;
59097;SDS011;44883;52.760;6.610;2022-09-09T07:36:39;8.00;;;4.07;;
59097;SDS011;44883;52.760;6.610;2022-09-09T07:39:06;6.72;;;4.10;;
59097;SDS011;44883;52.760;6.610;2022-09-09T07:41:36;7.50;;;4.20;;
59097;SDS011;44883;52.760;6.610;2022-09-09T07:44:05;7.30;;;4.15;;
59097;SDS011;44883;52.760;6.610;2022-09-09T07:46:36;7.13;;;3.80;;
59097;SDS011;44883;52.760;6.610;2022-09-09T07:49:03;7.20;;;4.13;;
59097;SDS011;44883;52.760;6.610;2022-09-09T07:51:30;6.47;;;3.72;;
59097;SDS011;44883;52.760;6.610;2022-09-09T07:53:58;6.13;;;3.65;;
59097;SDS011;44883;52.760;6.610;2022-09-09T07:56:27;9.18;;;4.03;;
59097;SDS011;44883;52.760;6.610;2022-09-09T07:58:54;8.00;;;4.18;;
59097;SDS011;44883;52.760;6.610;2022-09-09T08:01:27;7.63;;;4.28;;
59097;SDS011;44883;52.760;6.610;2022-09-09T08:03:58;7.78;;;4.18;;
59097;SDS011;44883;52.760;6.610;2022-09-09T08:06:29;8.18;;;4.63;;
59097;SDS011;44883;52.760;6.610;2022-09-09T08:08:58;7.97;;;4.55;;
59097;SDS011;44883;52.760;6.610;2022-09-09T08:11:24;6.93;;;4.25;;
59097;SDS011;44883;52.760;6.610;2022-09-09T08:13:52;7.10;;;4.13;;
59097;SDS011;44883;52.760;6.610;2022-09-09T08:16:19;6.60;;;4.15;;
59097;SDS011;44883;52.760;6.610;2022-09-09T08:18:48;8.70;;;4.30;;
59097;SDS011;44883;52.760;6.610;2022-09-09T08:21:15;7.63;;;4.15;;
59097;SDS011;44883;52.760;6.610;2022-09-09T08:23:43;7.88;;;4.50;;
59097;SDS011;44883;52.760;6.610;2022-09-09T08:26:20;8.57;;;4.63;;
59097;SDS011;44883;52.760;6.610;2022-09-09T08:28:51;9.07;;;4.40;;
59097;SDS011;44883;52.760;6.610;2022-09-09T08:33:45;10.32;;;4.38;;
59097;SDS011;44883;52.760;6.610;2022-09-09T08:36:12;8.27;;;3.92;;
59097;SDS011;44883;52.760;6.610;2022-09-09T08:38:40;9.23;;;3.92;;
59097;SDS011;44883;52.760;6.610;2022-09-09T08:43:39;11.13;;;4.60;;
59097;SDS011;44883;52.760;6.610;2022-09-09T08:46:22;8.35;;;3.55;;
59097;SDS011;44883;52.760;6.610;2022-09-09T08:51:56;10.02;;;4.13;;
59097;SDS011;44883;52.760;6.610;2022-09-09T08:54:22;7.18;;;3.67;;
59097;SDS011;44883;52.760;6.610;2022-09-09T08:56:50;9.65;;;3.80;;
59097;SDS011;44883;52.760;6.610;2022-09-09T08:59:17;8.73;;;3.70;;
59097;SDS011;44883;52.760;6.610;2022-09-09T09:12:32;10.35;;;3.30;;
59097;SDS011;44883;52.760;6.610;2022-09-09T09:15:11;8.40;;;3.08;;
59097;SDS011;44883;52.760;6.610;2022-09-09T09:17:44;11.57;;;3.20;;
59097;SDS011;44883;52.760;6.610;2022-09-09T09:20:16;7.28;;;2.80;;
59097;SDS011;44883;52.760;6.610;2022-09-09T09:22:48;8.98;;;2.83;;
59097;SDS011;44883;52.760;6.610;2022-09-09T09:25:17;9.70;;;3.03;;
59097;SDS011;44883;52.760;6.610;2022-09-09T09:28:01;9.02;;;3.13;;
59097;SDS011;44883;52.760;6.610;2022-09-09T09:30:36;7.47;;;3.05;;
59097;SDS011;44883;52.760;6.610;2022-09-09T09:36:02;11.18;;;2.70;;
59097;SDS011;44883;52.760;6.610;2022-09-09T09:38:28;8.35;;;2.63;;
59097;SDS011;44883;52.760;6.610;2022-09-09T09:40:55;9.73;;;2.53;;
59097;SDS011;44883;52.760;6.610;2022-09-09T09:43:26;6.78;;;2.13;;
59097;SDS011;44883;52.760;6.610;2022-09-09T09:46:00;7.82;;;2.40;;
59097;SDS011;44883;52.760;6.610;2022-09-09T09:48:28;8.02;;;2.10;;
59097;SDS011;44883;52.760;6.610;2022-09-09T09:50:58;7.57;;;2.30;;
59097;SDS011;44883;52.760;6.610;2022-09-09T09:53:30;9.13;;;2.75;;
59097;SDS011;44883;52.760;6.610;2022-09-09T09:56:01;8.73;;;2.58;;
59097;SDS011;44883;52.760;6.610;2022-09-09T09:58:33;9.25;;;2.65;;
59097;SDS011;44883;52.760;6.610;2022-09-09T10:01:22;9.07;;;3.00;;
59097;SDS011;44883;52.760;6.610;2022-09-09T10:04:15;8.75;;;2.75;;
59097;SDS011;44883;52.760;6.610;2022-09-09T10:06:44;9.98;;;2.72;;
59097;SDS011;44883;52.760;6.610;2022-09-09T10:09:29;6.05;;;2.20;;
59097;SDS011;44883;52.760;6.610;2022-09-09T10:14:56;7.38;;;2.25;;
59097;SDS011;44883;52.760;6.610;2022-09-09T10:34:40;7.07;;;2.25;;
59097;SDS011;44883;52.760;6.610;2022-09-09T10:39:50;6.35;;;1.70;;
59097;SDS011;44883;52.760;6.610;2022-09-09T10:42:28;6.88;;;1.75;;
59097;SDS011;44883;52.760;6.610;2022-09-09T10:45:00;6.80;;;1.70;;
59097;SDS011;44883;52.760;6.610;2022-09-09T10:56:06;6.22;;;1.83;;
59097;SDS011;44883;52.760;6.610;2022-09-09T11:01:26;6.53;;;1.90;;
59097;SDS011;44883;52.760;6.610;2022-09-09T11:03:59;7.88;;;1.77;;
59097;SDS011;44883;52.760;6.610;2022-09-09T11:06:32;5.97;;;1.65;;
59097;SDS011;44883;52.760;6.610;2022-09-09T11:09:03;8.05;;;1.80;;
59097;SDS011;44883;52.760;6.610;2022-09-09T11:11:40;5.38;;;2.00;;
59097;SDS011;44883;52.760;6.610;2022-09-09T11:14:22;8.32;;;2.25;;
59097;SDS011;44883;52.760;6.610;2022-09-09T11:16:55;6.25;;;1.98;;
59097;SDS011;44883;52.760;6.610;2022-09-09T11:19:31;10.20;;;2.40;;
59097;SDS011;44883;52.760;6.610;2022-09-09T11:22:05;8.02;;;1.90;;
59097;SDS011;44883;52.760;6.610;2022-09-09T11:24:44;6.35;;;1.70;;
59097;SDS011;44883;52.760;6.610;2022-09-09T11:33:12;5.15;;;1.90;;
59097;SDS011;44883;52.760;6.610;2022-09-09T11:36:01;7.93;;;1.80;;
59097;SDS011;44883;52.760;6.610;2022-09-09T11:38:47;6.40;;;1.73;;
59097;SDS011;44883;52.760;6.610;2022-09-09T11:41:19;9.23;;;2.17;;
59097;SDS011;44883;52.760;6.610;2022-09-09T11:43:50;8.65;;;2.08;;
59097;SDS011;44883;52.760;6.610;2022-09-09T11:48:44;7.47;;;2.08;;
59097;SDS011;44883;52.760;6.610;2022-09-09T11:53:53;4.80;;;1.52;;
59097;SDS011;44883;52.760;6.610;2022-09-09T11:59:00;7.00;;;1.90;;
59097;SDS011;44883;52.760;6.610;2022-09-09T12:06:49;6.20;;;1.48;;
59097;SDS011;44883;52.760;6.610;2022-09-09T12:17:23;6.05;;;1.38;;
59097;SDS011;44883;52.760;6.610;2022-09-09T12:22:47;7.15;;;1.67;;
59097;SDS011;44883;52.760;6.610;2022-09-09T12:28:04;6.10;;;1.98;;
59097;SDS011;44883;52.760;6.610;2022-09-09T12:33:23;5.47;;;1.50;;
59097;SDS011;44883;52.760;6.610;2022-09-09T12:35:58;7.38;;;1.55;;
59097;SDS011;44883;52.760;6.610;2022-09-09T12:40:59;5.15;;;1.50;;
59097;SDS011;44883;52.760;6.610;2022-09-09T12:43:26;9.10;;;1.90;;
59097;SDS011;44883;52.760;6.610;2022-09-09T12:46:39;12.93;;;2.47;;
59097;SDS011;44883;52.760;6.610;2022-09-09T12:49:01;10.18;;;2.42;;
59097;SDS011;44883;52.760;6.610;2022-09-09T12:51:30;13.38;;;2.42;;
59097;SDS011;44883;52.760;6.610;2022-09-09T12:53:59;7.57;;;2.47;;
59097;SDS011;44883;52.760;6.610;2022-09-09T12:56:26;11.30;;;2.22;;
59097;SDS011;44883;52.760;6.610;2022-09-09T12:58:54;5.95;;;1.90;;
59097;SDS011;44883;52.760;6.610;2022-09-09T13:01:23;5.47;;;1.67;;
59097;SDS011;44883;52.760;6.610;2022-09-09T13:03:50;6.75;;;1.80;;
59097;SDS011;44883;52.760;6.610;2022-09-09T13:06:19;6.63;;;1.65;;
59097;SDS011;44883;52.760;6.610;2022-09-09T13:08:51;5.28;;;1.55;;
59097;SDS011;44883;52.760;6.610;2022-09-09T13:11:22;5.32;;;1.35;;
59097;SDS011;44883;52.760;6.610;2022-09-09T13:13:56;6.18;;;1.50;;
59097;SDS011;44883;52.760;6.610;2022-09-09T13:16:27;5.50;;;1.58;;
59097;SDS011;44883;52.760;6.610;2022-09-09T13:19:00;6.03;;;1.73;;
59097;SDS011;44883;52.760;6.610;2022-09-09T13:21:34;7.13;;;1.90;;
59097;SDS011;44883;52.760;6.610;2022-09-09T13:24:00;5.82;;;1.80;;
59097;SDS011;44883;52.760;6.610;2022-09-09T13:26:32;7.95;;;1.90;;
59097;SDS011;44883;52.760;6.610;2022-09-09T13:29:14;6.57;;;1.92;;
59097;SDS011;44883;52.760;6.610;2022-09-09T13:31:43;5.07;;;1.60;;
59097;SDS011;44883;52.760;6.610;2022-09-09T13:34:31;5.00;;;1.40;;
59097;SDS011;44883;52.760;6.610;2022-09-09T13:37:00;5.50;;;1.67;;
59097;SDS011;44883;52.760;6.610;2022-09-09T13:39:27;4.25;;;1.40;;
59097;SDS011;44883;52.760;6.610;2022-09-09T13:41:53;4.88;;;1.20;;
59097;SDS011;44883;52.760;6.610;2022-09-09T13:44:26;4.97;;;1.30;;
59097;SDS011;44883;52.760;6.610;2022-09-09T13:47:00;3.47;;;0.90;;
59097;SDS011;44883;52.760;6.610;2022-09-09T13:49:31;4.38;;;1.23;;
59097;SDS011;44883;52.760;6.610;2022-09-09T13:54:33;4.03;;;1.20;;
59097;SDS011;44883;52.760;6.610;2022-09-09T13:56:59;4.28;;;1.40;;
59097;SDS011;44883;52.760;6.610;2022-09-09T13:59:26;5.82;;;1.20;;
59097;SDS011;44883;52.760;6.610;2022-09-09T14:01:52;4.22;;;1.40;;
59097;SDS011;44883;52.760;6.610;2022-09-09T14:04:17;5.05;;;1.10;;
59097;SDS011;44883;52.760;6.610;2022-09-09T14:06:46;4.28;;;1.30;;
59097;SDS011;44883;52.760;6.610;2022-09-09T14:09:12;3.28;;;1.10;;
59097;SDS011;44883;52.760;6.610;2022-09-09T14:11:40;3.92;;;1.20;;
59097;SDS011;44883;52.760;6.610;2022-09-09T14:14:05;3.08;;;1.08;;
59097;SDS011;44883;52.760;6.610;2022-09-09T14:16:32;4.72;;;1.15;;
59097;SDS011;44883;52.760;6.610;2022-09-09T14:18:58;4.90;;;1.23;;
59097;SDS011;44883;52.760;6.610;2022-09-09T14:21:24;3.92;;;1.42;;
59097;SDS011;44883;52.760;6.610;2022-09-09T14:23:50;4.07;;;1.30;;
59097;SDS011;44883;52.760;6.610;2022-09-09T14:26:17;4.95;;;1.48;;
59097;SDS011;44883;52.760;6.610;2022-09-09T14:28:46;3.05;;;1.40;;
59097;SDS011;44883;52.760;6.610;2022-09-09T14:31:12;4.43;;;1.55;;
59097;SDS011;44883;52.760;6.610;2022-09-09T14:33:38;4.07;;;1.52;;
59097;SDS011;44883;52.760;6.610;2022-09-09T14:36:04;4.70;;;1.60;;
59097;SDS011;44883;52.760;6.610;2022-09-09T14:38:31;6.00;;;1.88;;
59097;SDS011;44883;52.760;6.610;2022-09-09T14:41:04;4.47;;;1.60;;
59097;SDS011;44883;52.760;6.610;2022-09-09T14:43:42;4.65;;;1.48;;
59097;SDS011;44883;52.760;6.610;2022-09-09T14:46:09;3.58;;;1.48;;
59097;SDS011;44883;52.760;6.610;2022-09-09T14:48:38;3.75;;;1.30;;
59097;SDS011;44883;52.760;6.610;2022-09-09T14:51:11;4.30;;;1.48;;
59097;SDS011;44883;52.760;6.610;2022-09-09T14:53:40;3.63;;;1.50;;
59097;SDS011;44883;52.760;6.610;2022-09-09T14:56:10;3.00;;;1.20;;
59097;SDS011;44883;52.760;6.610;2022-09-09T14:58:37;4.05;;;1.80;;
59097;SDS011;44883;52.760;6.610;2022-09-09T15:01:07;3.92;;;1.42;;
59097;SDS011;44883;52.760;6.610;2022-09-09T15:03:37;4.75;;;1.63;;
59097;SDS011;44883;52.760;6.610;2022-09-09T15:06:07;4.25;;;1.63;;
59097;SDS011;44883;52.760;6.610;2022-09-09T15:08:34;3.63;;;1.67;;
59097;SDS011;44883;52.760;6.610;2022-09-09T15:11:03;5.47;;;1.50;;
59097;SDS011;44883;52.760;6.610;2022-09-09T15:13:31;3.75;;;1.55;;
59097;SDS011;44883;52.760;6.610;2022-09-09T15:16:02;3.58;;;1.60;;
59097;SDS011;44883;52.760;6.610;2022-09-09T15:18:41;4.22;;;1.65;;
59097;SDS011;44883;52.760;6.610;2022-09-09T15:21:11;3.58;;;1.50;;
59097;SDS011;44883;52.760;6.610;2022-09-09T15:23:39;3.80;;;1.60;;
59097;SDS011;44883;52.760;6.610;2022-09-09T15:26:05;4.70;;;1.80;;
59097;SDS011;44883;52.760;6.610;2022-09-09T15:28:34;3.13;;;1.80;;
59097;SDS011;44883;52.760;6.610;2022-09-09T15:31:04;6.05;;;1.92;;
59097;SDS011;44883;52.760;6.610;2022-09-09T15:33:32;5.18;;;2.03;;
59097;SDS011;44883;52.760;6.610;2022-09-09T15:35:58;5.00;;;2.17;;
59097;SDS011;44883;52.760;6.610;2022-09-09T15:38:24;4.18;;;1.90;;
59097;SDS011;44883;52.760;6.610;2022-09-09T15:40:53;4.95;;;2.08;;
59097;SDS011;44883;52.760;6.610;2022-09-09T15:43:20;4.57;;;2.15;;
59097;SDS011;44883;52.760;6.610;2022-09-09T15:45:49;6.15;;;2.13;;
59097;SDS011;44883;52.760;6.610;2022-09-09T15:48:19;6.22;;;2.17;;
59097;SDS011;44883;52.760;6.610;2022-09-09T15:51:00;6.40;;;2.10;;
59097;SDS011;44883;52.760;6.610;2022-09-09T15:53:29;4.78;;;2.13;;
59097;SDS011;44883;52.760;6.610;2022-09-09T15:55:57;5.90;;;2.22;;
59097;SDS011;44883;52.760;6.610;2022-09-09T15:58:24;5.53;;;2.08;;
59097;SDS011;44883;52.760;6.610;2022-09-09T16:00:49;5.07;;;2.00;;
59097;SDS011;44883;52.760;6.610;2022-09-09T16:03:15;5.30;;;2.20;;
59097;SDS011;44883;52.760;6.610;2022-09-09T16:05:40;5.65;;;2.22;;
59097;SDS011;44883;52.760;6.610;2022-09-09T16:08:06;6.95;;;2.33;;
59097;SDS011;44883;52.760;6.610;2022-09-09T16:10:32;5.10;;;2.63;;
59097;SDS011;44883;52.760;6.610;2022-09-09T16:13:03;5.53;;;2.25;;
59097;SDS011;44883;52.760;6.610;2022-09-09T16:15:29;5.53;;;2.13;;
59097;SDS011;44883;52.760;6.610;2022-09-09T16:17:55;7.13;;;2.65;;
59097;SDS011;44883;52.760;6.610;2022-09-09T16:20:20;4.93;;;2.35;;
59097;SDS011;44883;52.760;6.610;2022-09-09T16:22:46;5.03;;;2.25;;
59097;SDS011;44883;52.760;6.610;2022-09-09T16:25:11;5.13;;;2.45;;
59097;SDS011;44883;52.760;6.610;2022-09-09T16:27:37;6.18;;;2.60;;
59097;SDS011;44883;52.760;6.610;2022-09-09T16:30:02;9.15;;;2.70;;
59097;SDS011;44883;52.760;6.610;2022-09-09T16:32:29;5.47;;;2.47;;
59097;SDS011;44883;52.760;6.610;2022-09-09T16:34:54;6.40;;;2.70;;
59097;SDS011;44883;52.760;6.610;2022-09-09T16:37:21;6.95;;;2.72;;
59097;SDS011;44883;52.760;6.610;2022-09-09T16:39:46;6.82;;;2.40;;
59097;SDS011;44883;52.760;6.610;2022-09-09T16:42:12;5.70;;;2.40;;
59097;SDS011;44883;52.760;6.610;2022-09-09T16:44:37;7.22;;;2.80;;
59097;SDS011;44883;52.760;6.610;2022-09-09T16:47:03;8.10;;;3.40;;
59097;SDS011;44883;52.760;6.610;2022-09-09T16:49:29;6.45;;;3.00;;
59097;SDS011;44883;52.760;6.610;2022-09-09T16:51:56;7.95;;;3.28;;
59097;SDS011;44883;52.760;6.610;2022-09-09T16:54:23;6.55;;;3.30;;
59097;SDS011;44883;52.760;6.610;2022-09-09T16:56:50;5.45;;;2.38;;
59097;SDS011;44883;52.760;6.610;2022-09-09T16:59:17;6.05;;;2.60;;
59097;SDS011;44883;52.760;6.610;2022-09-09T17:01:44;5.60;;;2.20;;
59097;SDS011;44883;52.760;6.610;2022-09-09T17:04:13;6.40;;;2.15;;
59097;SDS011;44883;52.760;6.610;2022-09-09T17:06:45;3.30;;;1.73;;
59097;SDS011;44883;52.760;6.610;2022-09-09T17:09:14;5.47;;;2.05;;
59097;SDS011;44883;52.760;6.610;2022-09-09T17:11:40;6.05;;;2.00;;
59097;SDS011;44883;52.760;6.610;2022-09-09T17:14:06;5.22;;;2.40;;
59097;SDS011;44883;52.760;6.610;2022-09-09T17:16:34;5.07;;;2.20;;